TVS2TU LKPR-LDSP
Flight info
| Callsign | TVS2TU |
|---|---|
| Flight time | N/A |
| Altitude | 33000 |
| Route | VOZ4B/30 VOZ DCT PISAM DCT PETOV DCT NIVES DCT NUPSO |
| Aircraft | B738/M-SDE2E3FGHIRWXY/LB1 |
Departure
| Time | 2026-05-07 19:27 |
|---|---|
| Airport | Václav Havel Airport Prague (LKPR) |
Arrival
| Time | N/A |
|---|---|
| Airport | Split Saint Jerome Airport (LDSP) |
| Time | Latitude | Longitude | Altitude | Speed | Heading |
|---|---|---|---|---|---|
| 2026-05-07 18:53 | 50.10410 | 14.26632 | 1241 ft | 0 kts | 34° |
| 2026-05-07 19:16 | 50.10407 | 14.26628 | 1241 ft | 1 kts | 45° |
| 2026-05-07 19:17 | 50.10400 | 14.26616 | 1241 ft | 1 kts | 22° |
| 2026-05-07 19:17 | 50.10389 | 14.26615 | 1241 ft | 2 kts | 346° |
| 2026-05-07 19:17 | 50.10377 | 14.26618 | 1241 ft | 2 kts | 350° |
| 2026-05-07 19:17 | 50.10367 | 14.26623 | 1241 ft | 2 kts | 330° |
| 2026-05-07 19:18 | 50.10358 | 14.26632 | 1241 ft | 2 kts | 319° |
| 2026-05-07 19:18 | 50.10351 | 14.26644 | 1241 ft | 2 kts | 305° |
| 2026-05-07 19:18 | 50.10345 | 14.26659 | 1241 ft | 2 kts | 303° |
| 2026-05-07 19:18 | 50.10338 | 14.26674 | 1241 ft | 2 kts | 306° |
| 2026-05-07 19:19 | 50.10331 | 14.26689 | 1242 ft | 2 kts | 304° |
| 2026-05-07 19:19 | 50.10325 | 14.26704 | 1241 ft | 2 kts | 305° |
| 2026-05-07 19:19 | 50.10319 | 14.26716 | 1242 ft | 0 kts | 305° |
| 2026-05-07 19:21 | 50.10319 | 14.26715 | 1242 ft | 0 kts | 305° |
| 2026-05-07 19:21 | 50.10333 | 14.26685 | 1242 ft | 10 kts | 305° |
| 2026-05-07 19:21 | 50.10329 | 14.26601 | 1242 ft | 13 kts | 223° |
| 2026-05-07 19:22 | 50.10257 | 14.26525 | 1242 ft | 15 kts | 195° |
| 2026-05-07 19:22 | 50.10198 | 14.26602 | 1242 ft | 16 kts | 127° |
| 2026-05-07 19:22 | 50.10123 | 14.26759 | 1242 ft | 31 kts | 127° |
| 2026-05-07 19:22 | 50.10010 | 14.26994 | 1242 ft | 32 kts | 122° |
| 2026-05-07 19:23 | 50.09903 | 14.27218 | 1242 ft | 31 kts | 128° |
| 2026-05-07 19:23 | 50.09788 | 14.27416 | 1242 ft | 27 kts | 137° |
| 2026-05-07 19:23 | 50.09688 | 14.27565 | 1242 ft | 25 kts | 134° |
| 2026-05-07 19:23 | 50.09586 | 14.27725 | 1242 ft | 25 kts | 135° |
| 2026-05-07 19:24 | 50.09348 | 14.28085 | 1242 ft | 24 kts | 135° |
| 2026-05-07 19:24 | 50.09258 | 14.28224 | 1242 ft | 22 kts | 135° |
| 2026-05-07 19:24 | 50.09144 | 14.28272 | 1242 ft | 21 kts | 218° |
| 2026-05-07 19:25 | 50.09061 | 14.28153 | 1242 ft | 13 kts | 258° |
| 2026-05-07 19:25 | 50.09073 | 14.28115 | 1242 ft | 0 kts | 302° |
| 2026-05-07 19:26 | 50.09101 | 14.28049 | 1242 ft | 33 kts | 304° |
| 2026-05-07 19:26 | 50.09300 | 14.27642 | 1242 ft | 86 kts | 306° |
| 2026-05-07 19:27 | 50.09980 | 14.26244 | 1248 ft | 158 kts | 306° |
| 2026-05-07 19:27 | 50.10535 | 14.25108 | 1751 ft | 160 kts | 307° |
| 2026-05-07 19:27 | 50.11075 | 14.23991 | 2264 ft | 161 kts | 307° |
| 2026-05-07 19:28 | 50.11683 | 14.22747 | 2506 ft | 175 kts | 308° |
| 2026-05-07 19:28 | 50.12442 | 14.21221 | 2776 ft | 190 kts | 308° |
| 2026-05-07 19:28 | 50.13133 | 14.19808 | 2927 ft | 208 kts | 307° |
| 2026-05-07 19:28 | 50.13963 | 14.18091 | 3217 ft | 224 kts | 307° |
| 2026-05-07 19:29 | 50.14755 | 14.16446 | 3488 ft | 237 kts | 307° |
| 2026-05-07 19:29 | 50.16356 | 14.13109 | 4115 ft | 255 kts | 306° |
| 2026-05-07 19:29 | 50.17082 | 14.11279 | 4588 ft | 259 kts | 296° |
| 2026-05-07 19:30 | 50.17496 | 14.09448 | 5122 ft | 260 kts | 282° |
| 2026-05-07 19:30 | 50.17569 | 14.07075 | 5725 ft | 263 kts | 264° |
| 2026-05-07 19:30 | 50.16451 | 14.02452 | 7031 ft | 269 kts | 235° |
| 2026-05-07 19:31 | 50.15291 | 14.00622 | 7676 ft | 272 kts | 220° |
| 2026-05-07 19:31 | 50.13332 | 13.98873 | 8546 ft | 278 kts | 197° |
| 2026-05-07 19:31 | 50.11441 | 13.98796 | 9277 ft | 285 kts | 169° |
| 2026-05-07 19:31 | 50.09975 | 13.99749 | 9860 ft | 292 kts | 149° |
| 2026-05-07 19:32 | 50.09789 | 13.99939 | 9941 ft | 292 kts | 147° |
| 2026-05-07 19:32 | 50.08763 | 14.01258 | 10369 ft | 298 kts | 139° |
| 2026-05-07 19:32 | 50.07426 | 14.03287 | 10726 ft | 313 kts | 136° |
| 2026-05-07 19:32 | 50.05898 | 14.05726 | 11149 ft | 328 kts | 136° |
| 2026-05-07 19:33 | 50.04253 | 14.08370 | 11583 ft | 343 kts | 136° |
| 2026-05-07 19:33 | 50.02677 | 14.10886 | 12028 ft | 355 kts | 136° |
| 2026-05-07 19:33 | 50.00957 | 14.13607 | 12683 ft | 362 kts | 136° |
| 2026-05-07 19:33 | 49.99180 | 14.16404 | 13417 ft | 367 kts | 136° |
| 2026-05-07 19:34 | 49.97558 | 14.18945 | 14103 ft | 370 kts | 136° |
| 2026-05-07 19:34 | 49.96100 | 14.21226 | 14697 ft | 374 kts | 136° |
| 2026-05-07 19:34 | 49.92686 | 14.26560 | 15894 ft | 384 kts | 136° |
| 2026-05-07 19:35 | 49.90933 | 14.29295 | 16018 ft | 386 kts | 136° |
| 2026-05-07 19:35 | 49.89152 | 14.32074 | 16027 ft | 383 kts | 136° |
| 2026-05-07 19:35 | 49.87638 | 14.34433 | 16102 ft | 391 kts | 136° |